Terminal Aerodrome Forecast
Issued by NWS Mt. Holly, NJ

Home | Current Version | Previous Version | Text Only | Print | Product List | Glossary On
Versions: 1 2 3 4 5 6 7 8 9 10 11 12 13 14 15 16 17 18 19 20 21 22 23 24 25 26 27
000
FTUS41 KPHI 010800 AAA
TAFPHL
TAF AMD
KPHL 010847Z 0109/0212 02015G25KT P6SM OVC015
      TEMPO 0109/0112 4SM RA BR OVC010
     FM011200 02017G27KT 5SM -RA OVC015
     FM011400 01018G28KT 5SM -RA OVC025
     FM012100 36018G28KT P6SM OVC035
     FM020500 33020G30KT P6SM OVC050=

USA.gov is the U.S. government's official web portal to all federal, state and local government web resources and services.